Time;durP1;ratioP1;P1;durP2;ratioP2;P2;SDS_P1;SDS_P2;PMS_P1;PMS_P2;Temp;Humidity;BMP_temperature;BMP_pressure;BME280_temperature;BME280_humidity;BME280_pressure;Samples;Min_cycle;Max_cycle;Signal;HPM_P1;HPM_P2
2022/10/02 00:01:30;;;;;;;8.03;3.50;;;10.00;99.90;;;-141.84;89.18;18135.47;5054298;28;20237;-63
2022/10/02 00:04:01;;;;;;;4.50;3.17;;;10.00;99.90;;;-141.84;89.11;18139.53;5037321;28;20268;-63
2022/10/02 00:06:40;;;;;;;7.07;3.40;;;10.00;99.90;;;-141.84;89.33;18147.66;5027957;28;20233;-62
2022/10/02 00:09:20;;;;;;;7.10;3.30;;;10.00;99.90;;;-141.84;89.00;18151.72;5013863;28;20233;-61
2022/10/02 00:11:53;;;;;;;6.70;3.50;;;10.00;99.90;;;-141.84;88.79;18157.81;5014236;28;20226;-63
2022/10/02 00:14:25;;;;;;;9.13;3.83;;;10.00;99.90;;;-141.84;88.75;18117.19;5014197;28;20710;-62
2022/10/02 00:16:59;;;;;;;4.77;3.70;;;10.00;99.90;;;-141.84;88.69;18096.88;5014012;28;20670;-62
2022/10/02 00:19:28;;;;;;;5.93;3.10;;;10.00;99.90;;;-141.84;89.00;18121.25;5023844;28;20624;-64
2022/10/02 00:22:30;;;;;;;5.63;3.63;;;9.90;99.90;;;-141.84;88.84;18121.25;5035942;28;20206;-62
2022/10/02 00:25:08;;;;;;;8.03;3.73;;;9.90;99.90;;;-141.84;88.09;18123.28;5053460;28;20633;-64
2022/10/02 00:28:06;;;;;;;7.87;4.00;;;9.90;99.90;;;-141.84;88.11;18123.28;5054408;28;20185;-62
2022/10/02 00:30:59;;;;;;;5.57;3.90;;;9.90;99.90;;;-141.84;88.10;18137.50;5054096;28;20574;-63
2022/10/02 00:33:46;;;;;;;6.83;3.80;;;10.00;99.90;;;-141.84;88.24;18137.50;5053939;28;20209;-63
2022/10/02 00:36:35;;;;;;;6.47;3.87;;;10.00;99.90;;;-141.84;88.31;18157.81;5054008;28;20228;-64
2022/10/02 00:39:25;;;;;;;6.17;3.60;;;10.00;99.90;;;-141.84;88.26;18107.03;5053146;28;20256;-63
2022/10/02 00:42:44;;;;;;;6.97;3.60;;;10.00;99.90;;;-141.84;88.37;18119.22;5053465;28;20245;-63
2022/10/02 00:45:52;;;;;;;7.43;2.90;;;10.00;99.90;;;-141.84;89.05;18109.06;5053657;28;20225;-63
2022/10/02 00:48:54;;;;;;;5.13;2.80;;;10.00;99.90;;;-141.84;89.14;18100.94;5053733;28;20674;-63
2022/10/02 00:51:54;;;;;;;7.03;3.00;;;10.00;99.90;;;-141.84;89.20;18143.59;5050280;28;20224;-64
2022/10/02 00:54:55;;;;;;;6.57;3.00;;;9.90;99.90;;;-141.84;88.64;18111.09;5033651;28;20697;-63
2022/10/02 00:57:45;;;;;;;6.87;3.20;;;9.90;99.90;;;-141.84;89.03;18127.34;5033561;28;20222;-63
2022/10/02 01:00:17;;;;;;;8.03;2.83;;;9.90;99.90;;;-141.84;88.58;18111.09;5033176;28;20626;-62
2022/10/02 01:03:05;;;;;;;6.37;3.20;;;9.90;99.90;;;-141.84;88.75;18102.97;5049721;28;20220;-63
2022/10/02 01:05:35;;;;;;;7.37;3.03;;;9.90;99.90;;;-141.84;88.76;18088.75;5052433;28;20229;-63
2022/10/02 01:08:04;;;;;;;6.23;3.20;;;9.90;99.90;;;-141.84;88.56;18109.06;5031357;28;20612;-62
2022/10/02 01:10:34;;;;;;;5.40;3.20;;;9.80;99.90;;;-141.84;88.81;18086.72;5031496;28;20760;-64
2022/10/02 01:13:02;;;;;;;8.47;2.77;;;9.80;99.90;;;-141.84;89.20;18090.78;5031724;28;20209;-63
2022/10/02 01:15:35;;;;;;;6.27;3.20;;;9.80;99.90;;;-141.84;88.74;18086.72;5032010;28;20221;-62
2022/10/02 01:18:04;;;;;;;6.70;3.37;;;9.80;99.90;;;-141.84;88.93;18086.72;5031577;28;20603;-62
2022/10/02 01:20:40;;;;;;;5.50;2.70;;;9.80;99.90;;;-141.84;88.72;18084.69;5050409;28;20225;-64
2022/10/02 01:23:26;;;;;;;3.67;2.77;;;9.90;99.90;;;-141.84;88.90;18078.59;5051694;28;20225;-62
2022/10/02 01:25:56;;;;;;;5.93;3.10;;;9.80;99.90;;;-141.84;89.33;18080.63;5051284;28;20231;-62
2022/10/02 01:28:24;;;;;;;5.43;3.13;;;9.80;99.90;;;-141.84;89.39;18082.66;5051429;28;20218;-63
2022/10/02 01:31:01;;;;;;;6.40;2.50;;;9.80;99.90;;;-141.84;88.92;18078.59;5051215;28;20244;-62
2022/10/02 01:33:30;;;;;;;5.93;2.97;;;9.90;99.90;;;-141.84;89.15;18072.50;5051742;28;20189;-61
2022/10/02 01:35:58;;;;;;;7.40;3.00;;;9.80;99.90;;;-141.84;89.39;18094.84;5051344;28;20232;-62
2022/10/02 01:38:28;;;;;;;5.90;3.10;;;9.80;99.90;;;-141.84;88.81;18121.25;5051208;28;20236;-61
2022/10/02 01:40:57;;;;;;;5.57;2.90;;;9.90;99.90;;;-141.84;88.97;18117.19;5051097;28;20244;-62
2022/10/02 01:43:31;;;;;;;7.67;3.10;;;10.00;99.90;;;-141.84;87.73;18127.34;5050891;28;20685;-63
2022/10/02 01:46:20;;;;;;;6.07;2.90;;;10.10;99.90;;;-141.84;86.96;18123.28;5050811;28;20189;-62
2022/10/02 01:49:08;;;;;;;5.43;2.87;;;10.20;99.90;;;-141.84;86.26;18145.63;5051105;28;20200;-62
2022/10/02 01:52:08;;;;;;;7.27;3.03;;;10.30;99.90;;;-141.84;85.70;18147.66;5051545;28;20186;-61
2022/10/02 01:54:51;;;;;;;5.67;2.57;;;10.30;99.90;;;-141.84;84.26;18133.44;5050823;28;20301;-62
2022/10/02 01:57:38;;;;;;;7.37;2.90;;;10.40;99.90;;;-141.84;84.05;18151.72;5050965;28;20205;-63
2022/10/02 02:00:12;;;;;;;5.03;2.63;;;10.40;99.90;;;-141.84;84.25;18137.50;5050455;28;20229;-64
2022/10/02 02:02:56;;;;;;;6.73;2.63;;;10.40;99.90;;;-141.84;84.53;18163.91;5050588;28;20952;-62
2022/10/02 02:05:44;;;;;;;5.70;3.10;;;10.40;99.90;;;-141.84;84.42;18194.38;5050388;28;20225;-62
2022/10/02 02:08:27;;;;;;;5.80;2.60;;;10.40;99.90;;;-141.84;83.69;18167.97;5030556;28;20240;-63
2022/10/02 02:11:10;;;;;;;6.63;2.90;;;10.50;99.90;;;-141.84;83.47;18180.16;5030595;28;20709;-62
2022/10/02 02:13:48;;;;;;;6.30;2.80;;;10.50;99.90;;;-141.84;82.44;18220.78;5030557;28;20241;-62
2022/10/02 02:16:25;;;;;;;6.13;2.97;;;10.60;99.90;;;-141.84;81.99;18208.59;5030471;28;20233;-62
2022/10/02 02:19:01;;;;;;;4.93;2.70;;;10.70;99.90;;;-141.84;81.93;18198.44;5034891;28;20212;-62
2022/10/02 02:21:35;;;;;;;9.17;3.00;;;10.70;99.90;;;-141.84;82.44;18180.16;5051097;28;20283;-64
2022/10/02 02:24:11;;;;;;;7.43;3.17;;;10.70;99.90;;;-141.84;82.44;18204.53;5050467;28;20229;-63
2022/10/02 02:26:42;;;;;;;7.70;2.70;;;10.70;99.90;;;-141.84;82.23;18180.16;5049801;28;20236;-63
2022/10/02 02:29:16;;;;;;;7.07;2.90;;;10.60;99.90;;;-141.84;82.58;18167.97;5050121;28;20795;-63
2022/10/02 02:31:52;;;;;;;6.47;2.40;;;10.60;99.90;;;-141.84;83.42;18165.94;5049814;28;20220;-62
2022/10/02 02:34:29;;;;;;;6.53;3.03;;;10.50;99.90;;;-141.84;83.98;18151.72;5050243;28;20231;-62
2022/10/02 02:37:06;;;;;;;8.30;2.43;;;10.40;99.90;;;-141.84;84.42;18161.88;5050045;28;20183;-62
2022/10/02 02:39:42;;;;;;;5.77;2.70;;;10.30;99.90;;;-141.84;85.17;18123.28;5050670;28;20233;-63
2022/10/02 02:42:14;;;;;;;7.07;2.70;;;10.20;99.90;;;-141.84;85.65;18111.09;5030206;28;20623;-62
2022/10/02 02:44:55;;;;;;;6.50;3.37;;;10.10;99.90;;;-141.84;85.21;18127.34;5046829;28;20236;-62
2022/10/02 02:47:30;;;;;;;5.40;2.40;;;10.10;99.90;;;-141.84;85.52;18133.44;5049332;28;20213;-62
2022/10/02 02:50:05;;;;;;;7.30;2.60;;;10.10;99.90;;;-141.84;85.45;18129.38;5049965;28;20220;-62
2022/10/02 02:52:41;;;;;;;5.63;2.53;;;10.00;99.90;;;-141.84;85.70;18115.16;5049294;28;20717;-61
2022/10/02 02:55:17;;;;;;;8.30;3.00;;;10.00;99.90;;;-141.84;85.58;18111.09;5050073;28;20295;-63
2022/10/02 02:57:54;;;;;;;4.87;2.60;;;10.10;99.90;;;-141.84;85.75;18098.91;5050187;28;20212;-63
2022/10/02 03:00:25;;;;;;;9.10;3.30;;;10.00;99.90;;;-141.84;86.00;18098.91;5050245;28;20209;-63
2022/10/02 03:02:54;;;;;;;6.37;2.90;;;10.00;99.90;;;-141.84;85.90;18127.34;5049749;28;20720;-62
2022/10/02 03:05:24;;;;;;;5.70;3.00;;;10.00;99.90;;;-141.84;84.62;18121.25;5049496;28;20225;-63
2022/10/02 03:07:56;;;;;;;9.63;2.83;;;10.10;99.90;;;-141.84;85.00;18107.03;5031014;28;20260;-63
2022/10/02 03:10:46;;;;;;;5.57;2.77;;;10.00;99.90;;;-141.84;85.24;18105.00;5029575;28;20226;-63
2022/10/02 03:13:39;;;;;;;6.43;2.87;;;10.00;99.90;;;-141.84;86.01;18107.03;5029478;28;20795;-63
2022/10/02 03:16:26;;;;;;;6.67;3.13;;;10.00;99.90;;;-141.84;85.95;18078.59;5029322;28;20237;-62
2022/10/02 03:19:15;;;;;;;8.83;2.77;;;9.90;99.90;;;-141.84;85.38;18113.13;5034760;28;20201;-63
2022/10/02 03:22:04;;;;;;;6.10;2.53;;;9.90;99.90;;;-141.84;84.77;18066.41;5049337;28;20193;-63
2022/10/02 03:24:44;;;;;;;6.40;2.53;;;10.00;99.90;;;-141.84;85.24;18088.75;5050169;28;20182;-62
2022/10/02 03:27:20;;;;;;;10.57;2.90;;;10.00;99.90;;;-141.84;84.70;18131.41;5049278;28;20209;-63
2022/10/02 03:29:59;;;;;;;8.50;3.00;;;10.10;99.90;;;-141.84;84.68;18100.94;5050995;28;20228;-62
2022/10/02 03:32:32;;;;;;;5.97;2.77;;;10.00;99.90;;;-141.84;84.97;18111.09;5053427;28;20229;-62
2022/10/02 03:35:02;;;;;;;7.50;2.70;;;9.90;99.90;;;-141.84;85.81;18080.63;5053667;28;20247;-63
2022/10/02 03:37:32;;;;;;;6.57;3.10;;;9.90;99.90;;;-141.84;85.57;18127.34;5053165;28;20743;-62
2022/10/02 03:40:03;;;;;;;7.67;2.63;;;9.90;99.90;;;-141.84;85.49;18107.03;5053711;28;20221;-62
2022/10/02 03:42:34;;;;;;;7.30;2.80;;;9.90;99.90;;;-141.84;86.00;18096.88;5054168;28;20185;-61
2022/10/02 03:45:03;;;;;;;6.40;2.80;;;9.80;99.90;;;-141.84;86.08;18105.00;5053225;28;20229;-62
2022/10/02 03:47:32;;;;;;;7.93;3.13;;;9.90;99.90;;;-141.84;85.84;18090.78;5047657;28;20574;-64
2022/10/02 03:50:00;;;;;;;10.10;2.87;;;10.00;99.90;;;-141.84;83.77;18123.28;5047690;28;20644;-62
2022/10/02 03:52:34;;;;;;;6.23;3.03;;;10.20;99.90;;;-141.84;82.78;18161.88;5052962;28;20238;-62
2022/10/02 03:55:13;;;;;;;7.53;2.63;;;10.30;99.90;;;-141.84;82.72;18157.81;5053540;28;20182;-63
2022/10/02 03:57:46;;;;;;;7.77;2.90;;;10.30;99.90;;;-141.84;81.81;18170.00;5053408;28;20219;-62
2022/10/02 04:00:22;;;;;;;7.33;2.93;;;10.50;99.90;;;-141.84;81.15;18190.31;5053371;28;20827;-63
2022/10/02 04:02:58;;;;;;;6.83;3.50;;;10.50;99.90;;;-141.84;80.04;18230.94;5052691;28;20315;-62
2022/10/02 04:05:33;;;;;;;9.60;2.70;;;10.60;99.90;;;-141.84;79.83;18202.50;5052957;28;20229;-62
2022/10/02 04:08:10;;;;;;;8.53;2.80;;;10.70;99.90;;;-141.84;79.68;18241.13;5033274;28;20237;-62
2022/10/02 04:10:49;;;;;;;4.67;2.80;;;10.80;99.90;;;-141.84;80.02;18261.44;5032904;28;20225;-64
2022/10/02 04:13:28;;;;;;;7.50;3.23;;;10.80;99.90;;;-141.84;79.58;18253.31;5032706;28;20233;-62
2022/10/02 04:16:08;;;;;;;7.93;2.97;;;10.80;99.90;;;-141.84;79.93;18265.50;5032962;28;20256;-63
2022/10/02 04:18:48;;;;;;;5.90;2.50;;;10.80;99.90;;;-141.84;80.04;18241.13;5033408;28;20197;-62
2022/10/02 04:21:31;;;;;;;7.83;2.60;;;10.70;99.90;;;-141.84;81.05;18196.41;5033203;28;20225;-63
2022/10/02 04:24:12;;;;;;;4.83;2.80;;;10.70;99.90;;;-141.84;80.18;18263.47;5051391;28;20224;-61
2022/10/02 04:26:51;;;;;;;7.33;2.80;;;10.70;99.90;;;-141.84;80.69;18208.59;5036370;28;20240;-63
2022/10/02 04:29:26;;;;;;;3.93;2.60;;;10.60;99.90;;;-141.84;81.11;18218.75;5045940;28;20233;-63
2022/10/02 04:32:11;;;;;;;6.93;2.40;;;10.50;99.90;;;-141.84;81.78;18196.41;5052263;28;20228;-62
2022/10/02 04:34:41;;;;;;;7.67;2.67;;;10.50;99.90;;;-141.84;82.33;18167.97;5052785;28;20229;-62
2022/10/02 04:37:42;;;;;;;6.97;3.23;;;10.40;99.90;;;-141.84;82.62;18163.91;5052358;28;20237;-62
2022/10/02 04:40:29;;;;;;;5.13;2.60;;;10.40;99.90;;;-141.84;82.46;18180.16;5052372;28;20221;-63
2022/10/02 04:43:15;;;;;;;7.33;2.90;;;10.30;99.90;;;-141.84;82.26;18151.72;5052134;28;20285;-62
2022/10/02 04:46:07;;;;;;;5.13;2.57;;;10.40;99.90;;;-141.84;82.67;18115.16;5013253;28;20200;-63
2022/10/02 04:49:17;;;;;;;8.87;3.30;;;10.30;99.90;;;-141.84;82.15;18184.22;5026124;28;20221;-63
2022/10/02 04:52:05;;;;;;;5.00;3.00;;;10.20;99.90;;;-141.84;82.55;18174.06;5052264;28;20225;-64
2022/10/02 04:55:15;;;;;;;7.73;2.70;;;10.10;99.90;;;-141.84;83.39;18139.53;5052504;28;20665;-63
2022/10/02 04:58:00;;;;;;;7.57;3.40;;;10.10;99.90;;;-141.84;83.88;18125.31;5051963;28;20298;-62
2022/10/02 05:00:37;;;;;;;6.80;3.00;;;9.90;99.90;;;-141.84;84.54;18100.94;5052473;28;20208;-63
2022/10/02 05:03:34;;;;;;;7.43;3.07;;;9.90;99.90;;;-141.84;85.61;18100.94;5051654;28;20661;-63
2022/10/02 05:06:25;;;;;;;7.70;3.47;;;9.70;99.90;;;-141.84;86.07;18082.66;5051598;28;20217;-62
2022/10/02 05:09:11;;;;;;;8.43;3.10;;;9.70;99.90;;;-141.84;86.39;18094.84;5033806;28;20237;-62
2022/10/02 05:12:02;;;;;;;7.80;3.50;;;9.70;99.90;;;-141.84;86.42;18068.44;5031688;28;20237;-62
2022/10/02 05:15:02;;;;;;;8.83;3.20;;;9.70;99.90;;;-141.84;86.81;18082.66;5031284;28;20757;-63
2022/10/02 05:17:51;;;;;;;7.20;3.23;;;9.70;99.90;;;-141.84;86.80;18070.47;5031511;28;20614;-63
2022/10/02 05:20:55;;;;;;;6.93;3.70;;;9.70;99.90;;;-141.84;85.75;18096.88;5031445;28;20230;-62
2022/10/02 05:23:42;;;;;;;7.80;3.57;;;9.80;99.90;;;-141.84;85.57;18105.00;5031254;28;20233;-62
2022/10/02 05:26:41;;;;;;;6.97;3.30;;;9.80;99.90;;;-141.84;85.72;18074.53;5031574;28;20230;-62
2022/10/02 05:29:31;;;;;;;8.30;3.00;;;9.80;99.90;;;-141.84;85.97;18082.66;5031400;28;20236;-63
2022/10/02 05:32:24;;;;;;;5.47;3.17;;;9.70;99.90;;;-141.84;86.38;18048.13;5031318;28;20275;-62
2022/10/02 05:35:13;;;;;;;7.80;4.17;;;9.70;99.90;;;-141.84;86.76;18029.84;5030954;28;20283;-62
2022/10/02 05:37:57;;;;;;;7.80;3.87;;;9.70;99.90;;;-141.84;85.75;18096.88;5030658;28;20249;-62
2022/10/02 05:40:33;;;;;;;5.83;3.63;;;9.80;99.90;;;-141.84;85.93;18013.59;5030849;28;20253;-64
2022/10/02 05:43:11;;;;;;;9.13;4.20;;;9.80;99.90;;;-141.84;86.30;18068.44;5031077;28;20197;-62
2022/10/02 05:45:46;;;;;;;9.83;3.63;;;9.80;99.90;;;-141.84;86.70;18058.28;5031841;28;20182;-63
2022/10/02 05:48:20;;;;;;;8.70;4.07;;;9.80;99.90;;;-141.84;86.24;18025.78;5030776;28;20214;-63
2022/10/02 05:50:54;;;;;;;10.67;3.73;;;9.80;99.90;;;-141.84;86.53;18107.03;5011062;28;20221;-62
2022/10/02 05:53:35;;;;;;;7.43;4.30;;;9.80;99.90;;;-141.84;86.47;18109.06;5010060;28;20249;-62
2022/10/02 05:56:12;;;;;;;8.13;3.90;;;9.90;99.90;;;-141.84;86.17;18082.66;5011253;28;20235;-61
2022/10/02 05:58:50;;;;;;;7.97;3.70;;;9.90;99.90;;;-141.84;86.23;18068.44;5010845;28;20570;-62
2022/10/02 06:01:27;;;;;;;11.60;4.80;;;10.00;99.90;;;-141.84;85.16;18086.72;5010413;28;20728;-62
2022/10/02 06:04:03;;;;;;;9.43;3.97;;;10.10;99.90;;;-141.84;84.59;18119.22;5010787;28;20187;-62
2022/10/02 06:06:39;;;;;;;10.13;3.83;;;10.20;99.90;;;-141.84;83.02;18151.72;5018494;28;20194;-62
2022/10/02 06:09:16;;;;;;;6.63;3.80;;;10.30;99.90;;;-141.84;82.00;18172.03;5030487;28;20233;-62
2022/10/02 06:11:55;;;;;;;7.93;3.83;;;10.40;99.90;;;-141.84;82.44;18159.84;5030407;28;20233;-62
2022/10/02 06:14:34;;;;;;;9.13;4.27;;;10.50;99.90;;;-141.84;82.18;18159.84;5030364;28;20221;-62
2022/10/02 06:17:11;;;;;;;10.07;4.00;;;10.60;99.90;;;-141.84;81.16;18208.59;5030291;28;20225;-62
2022/10/02 06:19:48;;;;;;;10.63;3.80;;;10.70;99.90;;;-141.84;80.26;18206.56;5030434;28;20639;-62
2022/10/02 06:22:21;;;;;;;8.30;3.97;;;10.80;99.90;;;-141.84;80.34;18218.75;5030546;28;20344;-63
2022/10/02 06:24:57;;;;;;;7.20;3.73;;;10.90;99.90;;;-141.84;80.12;18243.16;5030231;28;20508;-64
2022/10/02 06:27:35;;;;;;;8.37;3.80;;;11.00;99.90;;;-141.84;79.61;18247.22;5030935;28;20190;-62
2022/10/02 06:30:09;;;;;;;7.77;3.77;;;11.10;99.90;;;-141.84;78.40;18265.50;5030177;28;20233;-63
2022/10/02 06:32:48;;;;;;;6.60;3.53;;;11.20;99.90;;;-141.84;77.76;18346.75;5030113;28;20275;-63
2022/10/02 06:35:34;;;;;;;7.73;3.80;;;11.30;99.90;;;-141.84;78.06;18322.38;5030103;28;20234;-63
2022/10/02 06:38:21;;;;;;;9.20;4.60;;;11.40;99.90;;;-141.84;76.01;18391.44;5029729;28;20233;-63
2022/10/02 06:41:02;;;;;;;7.03;3.80;;;11.70;99.90;;;-141.84;75.58;18456.47;5029673;28;20225;-63
2022/10/02 06:44:02;;;;;;;6.20;3.50;;;11.90;99.90;;;-141.84;75.53;18446.31;5029578;28;20623;-63
2022/10/02 06:46:51;;;;;;;8.13;3.43;;;11.90;99.90;;;-141.84;75.16;18474.75;5029594;28;20373;-62
2022/10/02 06:49:38;;;;;;;9.17;3.50;;;12.00;99.90;;;-141.84;75.33;18484.91;5029977;28;20582;-62
2022/10/02 06:52:23;;;;;;;9.67;4.47;;;12.00;99.90;;;-141.84;74.49;18505.22;5029509;28;20763;-63
2022/10/02 06:55:22;;;;;;;6.60;3.53;;;12.20;99.90;;;-141.84;73.66;18570.22;5029916;28;20191;-62
2022/10/02 06:58:44;;;;;;;7.13;3.07;;;12.30;99.90;;;-141.84;72.70;18641.34;5030074;28;20182;-63
2022/10/02 07:01:28;;;;;;;9.93;3.37;;;12.60;99.90;;;-141.84;71.03;18787.63;5029495;28;20226;-63
2022/10/02 07:04:31;;;;;;;7.87;3.13;;;13.00;99.90;;;-141.84;68.31;18927.84;5029581;28;20220;-63
2022/10/02 07:07:21;;;;;;;7.93;3.72;;;13.30;99.90;;;-141.84;67.27;19019.28;5029433;28;20222;-63
2022/10/02 07:10:29;;;;;;;7.35;3.10;;;13.60;99.90;;;-141.84;68.43;18980.66;5029130;28;20263;-63
2022/10/02 07:13:25;;;;;;;4.78;2.88;;;13.60;99.90;;;-141.84;69.31;18903.44;5029508;28;20182;-62
2022/10/02 07:16:21;;;;;;;7.28;3.00;;;13.60;99.90;;;-141.84;69.38;18885.16;5029565;28;20632;-62
2022/10/02 07:19:18;;;;;;;8.23;2.75;;;13.40;99.90;;;-141.84;70.88;18862.81;5029842;28;20202;-64
2022/10/02 07:21:59;;;;;;;8.38;3.13;;;13.20;99.90;;;-141.84;70.76;18832.34;5029432;28;20218;-63
2022/10/02 07:24:51;;;;;;;8.63;3.60;;;13.20;99.90;;;-141.84;71.09;18830.31;5030081;28;20549;-63
2022/10/02 07:27:26;;;;;;;7.28;3.40;;;13.20;99.90;;;-141.84;69.69;18913.59;5029356;28;20221;-63
2022/10/02 07:30:03;;;;;;;5.57;3.40;;;13.40;99.90;;;-141.84;68.78;18996.91;5047206;28;20225;-63
2022/10/02 07:32:47;;;;;;;7.80;3.30;;;13.60;99.90;;;-141.84;65.98;19202.16;5034114;28;20232;-62
2022/10/02 07:35:45;;;;;;;9.52;2.97;;;14.00;99.90;;;-141.84;65.10;19362.69;5029230;28;20225;-63
2022/10/02 07:38:44;;;;;;;7.03;2.72;;;14.30;99.90;;;-141.84;63.86;19450.06;5029438;28;20700;-62
2022/10/02 07:41:58;;;;;;;8.25;2.80;;;14.70;99.90;;;-141.84;63.24;19553.72;5028847;28;20241;-63
2022/10/02 07:44:53;;;;;;;5.35;2.88;;;14.80;99.90;;;-141.84;63.99;19543.53;5030834;28;20230;-63
2022/10/02 07:47:46;;;;;;;7.20;2.70;;;14.90;99.90;;;-141.84;64.67;19476.47;5029904;28;20222;-63
2022/10/02 07:50:31;;;;;;;6.13;2.83;;;14.80;99.90;;;-141.84;66.16;19401.28;5029527;28;20601;-64
2022/10/02 07:53:11;;;;;;;6.85;2.60;;;14.70;99.90;;;-141.84;66.12;19352.53;5029879;28;20230;-63
2022/10/02 07:55:43;;;;;;;5.28;2.55;;;14.60;99.90;;;-141.84;66.61;19305.78;5029960;28;20240;-63
2022/10/02 07:58:18;;;;;;;7.93;3.67;;;14.60;99.90;;;-141.84;68.33;19202.16;5029943;28;20618;-64
2022/10/02 08:00:52;;;;;;;7.70;3.75;;;14.40;99.90;;;-141.84;70.15;19035.53;5029919;28;20185;-63
2022/10/02 08:03:27;;;;;;;9.05;4.10;;;14.20;99.90;;;-141.84;72.30;18960.34;5030099;28;20213;-63
2022/10/02 08:05:59;;;;;;;8.02;3.60;;;14.00;99.90;;;-141.84;73.65;18921.75;5029594;28;20261;-63
2022/10/02 08:08:37;;;;;;;4.60;3.38;;;13.80;99.90;;;-141.84;73.80;18905.47;5029491;28;20233;-63
2022/10/02 08:11:14;;;;;;;7.47;3.30;;;13.80;99.90;;;-141.84;73.63;18944.09;5029332;28;20237;-63
2022/10/02 08:13:49;;;;;;;9.45;3.55;;;13.80;99.90;;;-141.84;73.74;18899.38;5029709;28;20230;-63
2022/10/02 08:16:22;;;;;;;5.20;3.03;;;13.70;99.90;;;-141.84;73.51;18925.81;5030487;28;20237;-63
2022/10/02 08:18:58;;;;;;;5.43;3.10;;;13.90;99.90;;;-141.84;73.65;18903.44;5033461;28;20202;-63
2022/10/02 08:21:38;;;;;;;8.65;3.10;;;13.90;99.90;;;-141.84;72.63;18923.78;5033683;28;20201;-63
2022/10/02 08:24:15;;;;;;;8.48;3.47;;;14.00;99.90;;;-141.84;72.16;18976.59;5033439;28;20226;-63
2022/10/02 08:26:53;;;;;;;6.00;3.22;;;14.10;99.90;;;-141.84;72.98;18996.91;5033317;28;20291;-63
2022/10/02 08:29:28;;;;;;;5.85;3.30;;;14.20;99.90;;;-141.84;72.38;18956.28;5031117;28;20264;-63
2022/10/02 08:31:56;;;;;;;6.32;3.13;;;14.20;99.90;;;-141.84;71.34;18976.59;5032460;28;20225;-63
2022/10/02 08:34:25;;;;;;;8.02;3.50;;;14.30;99.90;;;-141.84;71.59;19005.03;5033836;28;20293;-62
2022/10/02 08:37:17;;;;;;;6.20;3.00;;;14.30;99.90;;;-141.84;71.64;19000.97;5032938;28;20248;-62
2022/10/02 08:40:35;;;;;;;7.32;3.33;;;14.30;99.90;;;-141.84;71.22;19033.50;5033792;28;20256;-63
2022/10/02 08:43:50;;;;;;;11.07;3.55;;;14.40;99.90;;;-141.84;70.60;19029.44;5033228;28;20237;-64
2022/10/02 08:47:02;;;;;;;6.82;3.17;;;14.50;99.90;;;-141.84;70.32;19098.50;5033063;28;20229;-62
2022/10/02 08:50:13;;;;;;;6.82;3.15;;;14.50;99.90;;;-141.84;70.50;19088.34;5022726;28;20229;-64
2022/10/02 08:53:56;;;;;;;10.38;3.40;;;14.50;99.90;;;-141.84;70.21;19066.00;5033171;28;20222;-63
2022/10/02 08:57:02;;;;;;;8.18;3.08;;;14.40;99.90;;;-141.84;70.28;19035.53;5033161;28;20230;-64
2022/10/02 09:00:08;;;;;;;7.65;3.33;;;14.40;99.90;;;-141.84;71.12;19039.59;5032821;28;20237;-63
2022/10/02 09:03:35;;;;;;;4.63;2.88;;;14.40;99.90;;;-141.84;70.96;19029.44;5032950;28;20283;-62
2022/10/02 09:06:57;;;;;;;5.63;3.20;;;14.50;99.90;;;-141.84;70.17;19102.56;5032953;28;20226;-63
2022/10/02 09:10:44;;;;;;;7.53;3.15;;;14.60;99.90;;;-141.84;68.31;19171.66;5033203;28;20245;-64
2022/10/02 09:14:08;;;;;;;8.20;3.05;;;14.90;99.90;;;-141.84;67.38;19287.50;5029663;28;20287;-62
2022/10/02 09:17:01;;;;;;;7.15;2.70;;;15.10;99.90;;;-141.84;67.12;19287.50;5038981;28;20237;-62
2022/10/02 09:19:48;;;;;;;5.00;2.45;;;15.30;99.90;;;-141.84;67.45;19305.78;5052811;28;20236;-63
2022/10/02 09:23:13;;;;;;;5.53;2.92;;;15.30;99.90;;;-141.84;67.10;19338.28;5052288;28;20655;-63
2022/10/02 09:25:57;;;;;;;6.60;3.20;;;15.40;99.90;;;-141.84;65.81;19450.06;5051332;28;20229;-62
2022/10/02 09:29:29;;;;;;;8.80;3.65;;;15.60;99.90;;;-141.84;65.46;19486.66;5046865;28;20228;-63
2022/10/02 09:32:58;;;;;;;7.28;2.92;;;15.80;99.90;;;-141.84;64.74;19578.09;5048944;28;20216;-63
2022/10/02 09:36:28;;;;;;;5.55;3.55;;;16.00;99.90;;;-141.84;63.89;19665.47;5047325;28;20267;-63
2022/10/02 09:39:45;;;;;;;6.25;2.90;;;16.20;99.90;;;-141.84;63.88;19671.56;5036433;28;20217;-61
2022/10/02 09:43:16;;;;;;;8.10;3.03;;;16.30;99.90;;;-141.84;64.68;19628.91;5031690;28;20237;-62
2022/10/02 09:46:41;;;;;;;7.40;3.22;;;16.00;99.90;;;-141.84;65.77;19502.91;5024599;28;20356;-63
2022/10/02 09:49:56;;;;;;;5.50;3.00;;;15.90;99.90;;;-141.84;66.28;19458.19;5032339;28;20226;-64
2022/10/02 09:53:19;;;;;;;5.93;2.80;;;15.80;99.90;;;-141.84;64.38;19586.22;5024574;28;20579;-64
2022/10/02 09:56:33;;;;;;;5.60;3.47;;;15.90;99.90;;;-141.84;65.66;19563.88;5025681;28;20230;-63
2022/10/02 09:59:47;;;;;;;5.72;2.53;;;16.00;99.90;;;-141.84;65.37;19557.78;5025661;28;20292;-61
2022/10/02 10:03:16;;;;;;;5.50;2.60;;;16.00;99.90;;;-141.84;64.66;19604.50;5031203;28;20639;-64
2022/10/02 10:06:26;;;;;;;4.97;2.65;;;16.10;99.90;;;-141.84;64.76;19598.41;5022568;28;20213;-65
2022/10/02 10:09:35;;;;;;;4.93;2.72;;;16.10;99.90;;;-141.84;65.69;19541.50;5030901;28;20305;-62
2022/10/02 10:12:41;;;;;;;7.50;3.40;;;16.00;99.90;;;-141.84;67.65;19385.03;5030875;28;20233;-63
2022/10/02 10:16:28;;;;;;;6.05;2.83;;;15.70;99.90;;;-141.84;67.71;19360.66;5018134;28;20206;-64
2022/10/02 10:19:48;;;;;;;5.50;2.70;;;15.50;99.90;;;-141.84;68.92;19261.06;5007494;28;20218;-63
2022/10/02 10:23:06;;;;;;;5.10;2.67;;;15.30;99.90;;;-141.84;67.82;19350.50;5026895;28;20221;-64
2022/10/02 10:26:27;;;;;;;5.68;2.78;;;15.30;99.90;;;-141.84;68.47;19330.16;5047469;28;20225;-63
2022/10/02 10:29:37;;;;;;;5.40;2.70;;;15.40;99.90;;;-141.84;66.46;19435.84;5041075;28;20217;-63
2022/10/02 10:33:05;;;;;;;6.57;2.83;;;15.70;99.90;;;-141.84;65.21;19525.25;5047286;28;20606;-65
2022/10/02 10:40:13;;;;;;;4.53;2.38;;;15.90;99.90;;;-141.84;64.82;19553.72;5035188;28;20213;-63
2022/10/02 10:43:18;;;;;;;4.57;2.30;;;16.00;99.90;;;-141.84;63.80;19667.50;5023132;28;20725;-63
2022/10/02 10:46:24;;;;;;;4.93;2.40;;;16.10;99.90;;;-141.84;64.08;19635.00;5020588;28;20677;-63
2022/10/02 10:49:29;;;;;;;6.97;2.50;;;16.10;99.90;;;-141.84;63.40;19657.34;5024855;28;20193;-64
2022/10/02 10:52:14;;;;;;;4.38;2.20;;;16.10;99.90;;;-141.84;64.13;19651.25;5028583;28;20193;-63
2022/10/02 10:55:11;;;;;;;5.07;2.30;;;16.00;99.90;;;-141.84;64.06;19647.19;5030925;28;20194;-65
2022/10/02 10:58:00;;;;;;;6.55;2.40;;;16.10;99.90;;;-141.84;64.25;19620.78;5028387;28;20233;-63
2022/10/02 11:00:44;;;;;;;13.38;11.45;;;16.00;99.90;;;-141.84;63.91;19687.84;5012691;28;20631;-63
2022/10/02 11:04:00;;;;;;;3.53;2.45;;;16.10;99.90;;;-141.84;64.21;19649.22;5027214;28;20267;-64
2022/10/02 11:07:07;;;;;;;7.55;2.40;;;16.20;99.90;;;-141.84;63.05;19752.88;5029926;28;20218;-63
2022/10/02 11:10:18;;;;;;;6.22;2.75;;;16.30;99.90;;;-141.84;62.58;19779.28;5030790;28;20229;-63
2022/10/02 11:13:04;;;;;;;6.03;2.72;;;16.40;99.90;;;-141.84;62.10;19884.97;5030072;28;20291;-63
2022/10/02 11:16:13;;;;;;;6.55;2.80;;;16.60;99.90;;;-141.84;61.83;19931.72;5030467;28;20193;-62
2022/10/02 11:19:28;;;;;;;7.10;3.35;;;16.80;99.90;;;-141.84;61.31;19972.38;5029908;28;20279;-63
2022/10/02 11:22:25;;;;;;;6.90;3.03;;;16.80;99.90;;;-141.84;62.27;19909.34;5027017;28;20247;-64
2022/10/02 11:25:56;;;;;;;5.65;2.63;;;16.90;99.90;;;-141.84;60.89;20065.84;5049510;28;20205;-63
2022/10/02 11:28:59;;;;;;;5.05;2.60;;;17.00;99.90;;;-141.84;60.30;20090.25;4983917;28;20373;-64
2022/10/02 11:31:53;;;;;;;7.15;2.58;;;17.10;99.90;;;-141.84;60.25;20132.94;5039601;28;20247;-64
2022/10/02 11:34:57;;;;;;;5.93;2.50;;;17.20;99.90;;;-141.84;60.60;20122.78;5038574;28;20810;-64
2022/10/02 11:37:59;;;;;;;7.97;2.80;;;17.10;99.90;;;-141.84;60.66;20112.59;5031296;28;20744;-66
2022/10/02 11:41:03;;;;;;;5.63;2.55;;;17.00;99.90;;;-141.84;61.41;20071.97;5026941;28;20249;-63